Time;durP1;ratioP1;P1;durP2;ratioP2;P2;SDS_P1;SDS_P2;PMS_P1;PMS_P2;Temp;Humidity;BMP_temperature;BMP_pressure;BME280_temperature;BME280_humidity;BME280_pressure;Samples;Min_cycle;Max_cycle;Signal;HPM_P1;HPM_P2
2020/12/08 00:02:21;;;;;;;72.30;14.90;;;2.20;1.00;;;;;;5077741;28;20272;-78
2020/12/08 00:04:48;;;;;;;72.65;14.57;;;2.20;1.00;;;;;;5078213;28;20251;-78
2020/12/08 00:07:14;;;;;;;73.50;14.27;;;2.30;1.00;;;;;;5077096;28;20205;-78
2020/12/08 00:09:40;;;;;;;71.15;14.00;;;2.30;1.00;;;;;;5078106;28;20288;-77
2020/12/08 00:12:07;;;;;;;72.03;13.95;;;2.30;1.00;;;;;;5078144;28;20204;-78
2020/12/08 00:14:34;;;;;;;72.82;14.13;;;2.30;1.00;;;;;;5077743;28;20801;-78
2020/12/08 00:17:02;;;;;;;71.57;13.82;;;2.30;1.00;;;;;;5077834;28;20715;-77
2020/12/08 00:19:28;;;;;;;73.90;14.82;;;2.30;1.00;;;;;;5077972;28;20213;-78
2020/12/08 00:21:55;;;;;;;73.63;13.93;;;2.30;1.00;;;;;;5077875;28;20209;-78
2020/12/08 00:24:21;;;;;;;72.82;14.48;;;2.30;1.00;;;;;;5078027;28;20229;-78
2020/12/08 00:26:48;;;;;;;71.75;14.98;;;2.30;1.00;;;;;;5077132;28;20208;-78
2020/12/08 00:29:15;;;;;;;72.43;14.48;;;2.30;1.00;;;;;;5078081;28;20239;-78
2020/12/08 00:31:42;;;;;;;72.95;15.20;;;2.30;1.00;;;;;;5073794;28;20250;-79
2020/12/08 00:34:08;;;;;;;70.20;13.45;;;2.30;1.00;;;;;;5073241;28;20229;-79
2020/12/08 00:36:35;;;;;;;70.90;13.45;;;2.30;1.00;;;;;;5073769;28;20285;-79
2020/12/08 00:39:01;;;;;;;72.50;13.73;;;2.30;1.00;;;;;;5074583;28;20619;-79
2020/12/08 00:41:27;;;;;;;73.55;14.85;;;2.30;1.00;;;;;;5072493;28;20299;-78
2020/12/08 00:43:54;;;;;;;73.18;14.70;;;2.30;1.00;;;;;;5072969;28;20765;-80
2020/12/08 00:46:21;;;;;;;73.70;15.30;;;2.30;1.00;;;;;;5072713;28;20208;-80
2020/12/08 00:48:48;;;;;;;73.05;14.60;;;2.40;1.00;;;;;;5073028;28;20251;-79
2020/12/08 00:51:15;;;;;;;74.43;14.35;;;2.40;1.00;;;;;;5073701;28;20276;-79
2020/12/08 00:53:41;;;;;;;73.93;14.70;;;2.40;1.00;;;;;;5096943;22;20240;-72
2020/12/08 00:56:09;;;;;;;73.50;15.80;;;2.40;1.00;;;;;;5072917;28;20292;-72
2020/12/08 00:58:36;;;;;;;71.22;14.68;;;2.40;1.00;;;;;;5072526;28;20208;-70
2020/12/08 01:01:03;;;;;;;74.07;14.98;;;2.40;1.00;;;;;;5073696;28;20258;-71
2020/12/08 01:03:29;;;;;;;75.47;14.50;;;2.40;1.00;;;;;;5073649;28;20244;-72
2020/12/08 01:05:56;;;;;;;74.78;16.05;;;2.40;1.00;;;;;;5073338;28;20291;-72
2020/12/08 01:08:23;;;;;;;74.72;16.45;;;2.40;1.00;;;;;;5073066;28;20223;-72
2020/12/08 01:10:49;;;;;;;73.65;14.00;;;2.40;1.00;;;;;;5073716;28;20564;-72
2020/12/08 01:13:15;;;;;;;73.85;16.17;;;2.40;1.00;;;;;;5073440;28;20308;-72
2020/12/08 01:15:42;;;;;;;73.28;16.15;;;2.40;1.00;;;;;;5073743;28;20676;-73
2020/12/08 01:18:08;;;;;;;75.13;16.50;;;2.40;1.00;;;;;;5074005;28;20253;-72
2020/12/08 01:20:35;;;;;;;75.40;16.65;;;2.40;1.00;;;;;;5074026;28;20208;-72
2020/12/08 01:23:02;;;;;;;76.32;15.80;;;2.50;1.00;;;;;;5074255;28;20296;-71
2020/12/08 01:25:28;;;;;;;74.20;16.50;;;2.50;1.00;;;;;;5073440;28;20735;-71
2020/12/08 01:27:54;;;;;;;77.55;17.10;;;2.50;1.00;;;;;;5074546;28;20978;-73
2020/12/08 01:30:21;;;;;;;75.72;14.75;;;2.50;1.00;;;;;;5074140;28;20211;-70
2020/12/08 01:32:47;;;;;;;75.93;15.90;;;2.50;1.00;;;;;;5073815;28;20212;-71
2020/12/08 01:35:13;;;;;;;75.15;15.80;;;2.50;1.00;;;;;;5074068;28;20225;-72
2020/12/08 01:37:40;;;;;;;77.25;16.05;;;2.50;1.00;;;;;;5074307;28;20260;-72
2020/12/08 01:40:07;;;;;;;73.50;14.45;;;2.50;1.00;;;;;;5073543;28;20211;-72
2020/12/08 01:42:33;;;;;;;75.78;16.88;;;2.50;1.00;;;;;;5073855;28;20208;-72
2020/12/08 01:45:00;;;;;;;75.13;14.85;;;2.50;1.00;;;;;;5073763;28;20382;-71
2020/12/08 01:47:27;;;;;;;72.07;13.95;;;2.50;1.00;;;;;;5073954;28;20204;-72
2020/12/08 01:49:54;;;;;;;81.20;16.42;;;2.50;1.00;;;;;;5074456;28;20656;-72
2020/12/08 01:52:20;;;;;;;75.28;16.63;;;2.50;1.00;;;;;;5073251;28;20291;-72
2020/12/08 01:54:50;;;;;;;76.63;16.70;;;2.50;1.00;;;;;;5073523;28;20225;-72
2020/12/08 01:57:17;;;;;;;77.25;16.17;;;2.40;1.00;;;;;;5073803;28;20225;-72
2020/12/08 01:59:44;;;;;;;74.70;15.70;;;2.40;1.00;;;;;;5073318;28;20311;-70
2020/12/08 02:02:10;;;;;;;76.35;15.93;;;2.30;1.00;;;;;;5072659;28;20250;-72
2020/12/08 02:04:37;;;;;;;77.68;17.33;;;2.30;1.00;;;;;;5073442;28;20221;-72
2020/12/08 02:07:04;;;;;;;74.15;16.13;;;2.20;1.00;;;;;;5072374;28;20315;-71
2020/12/08 02:09:34;;;;;;;75.25;15.60;;;2.20;1.00;;;;;;5074007;28;20208;-72
2020/12/08 02:12:00;;;;;;;73.57;15.20;;;2.10;1.00;;;;;;5076875;28;20300;-71
2020/12/08 02:14:27;;;;;;;73.43;15.13;;;2.10;1.00;;;;;;5076430;28;20256;-71
2020/12/08 02:16:53;;;;;;;77.85;15.25;;;2.10;1.00;;;;;;5076257;28;20227;-72
2020/12/08 02:19:20;;;;;;;77.38;17.58;;;2.10;1.00;;;;;;5076108;28;20229;-71
2020/12/08 02:21:47;;;;;;;79.28;17.67;;;2.10;1.00;;;;;;5076005;28;20345;-72
2020/12/08 02:24:16;;;;;;;78.60;18.70;;;2.10;1.00;;;;;;5075778;28;20229;-72
2020/12/08 02:26:43;;;;;;;76.18;15.25;;;2.00;1.00;;;;;;5075310;28;20244;-72
2020/12/08 02:29:09;;;;;;;77.68;17.50;;;2.00;1.00;;;;;;5072986;28;20264;-72
2020/12/08 02:31:36;;;;;;;76.93;17.67;;;1.90;1.00;;;;;;5075150;28;20235;-72
2020/12/08 02:34:02;;;;;;;75.63;15.35;;;1.80;1.00;;;;;;5075285;28;20312;-72
2020/12/08 02:36:29;;;;;;;74.93;17.23;;;1.80;1.00;;;;;;5075337;28;20225;-71
2020/12/08 02:38:56;;;;;;;76.07;16.42;;;1.70;1.00;;;;;;5075678;28;20308;-72
2020/12/08 02:41:24;;;;;;;75.15;16.30;;;1.60;1.00;;;;;;5075675;28;20262;-72
2020/12/08 02:43:51;;;;;;;80.00;17.50;;;1.60;1.00;;;;;;5075433;28;20221;-72
2020/12/08 02:46:18;;;;;;;77.40;17.42;;;1.50;1.00;;;;;;5075940;28;20266;-72
2020/12/08 02:48:47;;;;;;;83.95;21.25;;;1.50;1.00;;;;;;5076139;28;20733;-72
2020/12/08 02:51:16;;;;;;;85.82;21.15;;;1.50;1.00;;;;;;5076500;28;20300;-72
2020/12/08 02:53:43;;;;;;;78.38;17.80;;;1.40;1.00;;;;;;5076223;28;20290;-72
2020/12/08 02:56:10;;;;;;;75.25;17.95;;;1.40;1.00;;;;;;5075347;28;20335;-72
2020/12/08 02:58:36;;;;;;;79.32;18.17;;;1.40;1.00;;;;;;5075084;28;20208;-72
2020/12/08 03:01:03;;;;;;;80.32;18.15;;;1.30;1.00;;;;;;5075439;28;20205;-72
2020/12/08 03:03:30;;;;;;;77.43;18.33;;;1.30;1.00;;;;;;5075214;28;20292;-71
2020/12/08 03:05:56;;;;;;;79.93;18.50;;;1.30;1.00;;;;;;5074976;28;20296;-72
2020/12/08 03:08:23;;;;;;;80.13;16.60;;;1.30;1.00;;;;;;5075226;28;20201;-72
2020/12/08 03:10:49;;;;;;;77.78;18.33;;;1.30;1.00;;;;;;5075009;28;20387;-72
2020/12/08 03:13:16;;;;;;;76.60;16.85;;;1.30;1.00;;;;;;5075231;28;20205;-72
2020/12/08 03:15:43;;;;;;;81.07;18.85;;;1.40;1.00;;;;;;5075022;28;20292;-71
2020/12/08 03:18:09;;;;;;;77.35;16.75;;;1.40;1.00;;;;;;5075256;28;20339;-72
2020/12/08 03:20:35;;;;;;;76.72;17.17;;;1.40;1.00;;;;;;5074564;28;20212;-72
2020/12/08 03:23:02;;;;;;;77.72;16.73;;;1.40;1.00;;;;;;5074879;28;20212;-72
2020/12/08 03:25:28;;;;;;;82.75;19.48;;;1.30;1.00;;;;;;5074319;28;20272;-68
2020/12/08 03:27:54;;;;;;;80.50;18.67;;;1.30;1.00;;;;;;5075142;28;20247;-71
2020/12/08 03:30:21;;;;;;;77.10;15.57;;;1.30;1.00;;;;;;5074615;28;20264;-72
2020/12/08 03:32:48;;;;;;;74.55;17.00;;;1.30;1.00;;;;;;5074368;28;20295;-72
2020/12/08 03:35:14;;;;;;;82.15;18.08;;;1.30;1.00;;;;;;5074417;28;20264;-72
2020/12/08 03:37:40;;;;;;;79.38;18.48;;;1.20;1.00;;;;;;5074293;28;20216;-71
2020/12/08 03:40:07;;;;;;;79.78;18.05;;;1.20;1.00;;;;;;5074446;28;20208;-72
2020/12/08 03:42:33;;;;;;;79.60;17.15;;;1.20;1.00;;;;;;5074433;28;20255;-72
2020/12/08 03:44:59;;;;;;;80.78;17.50;;;1.20;1.00;;;;;;5074044;28;20229;-72
2020/12/08 03:47:27;;;;;;;81.97;18.77;;;1.10;1.00;;;;;;5073962;28;20205;-72
2020/12/08 03:49:53;;;;;;;81.18;18.70;;;1.10;1.00;;;;;;5074143;28;20213;-71
2020/12/08 03:52:19;;;;;;;86.45;20.08;;;1.00;1.00;;;;;;5073897;28;20292;-72
2020/12/08 03:54:46;;;;;;;79.40;18.70;;;1.00;1.00;;;;;;5073999;28;20282;-72
2020/12/08 03:57:12;;;;;;;80.82;17.85;;;1.00;1.00;;;;;;5073358;28;20231;-72
2020/12/08 03:59:38;;;;;;;80.40;18.02;;;0.90;1.00;;;;;;5074048;28;20201;-72
2020/12/08 04:02:05;;;;;;;81.50;17.55;;;0.90;1.00;;;;;;5073990;28;20255;-72
2020/12/08 04:04:32;;;;;;;82.05;19.00;;;1.00;1.00;;;;;;5073599;28;20256;-72
2020/12/08 04:06:58;;;;;;;77.22;17.90;;;0.90;1.00;;;;;;5073465;28;20254;-72
2020/12/08 04:09:25;;;;;;;83.63;19.33;;;0.90;1.00;;;;;;5073606;28;20296;-72
2020/12/08 04:11:51;;;;;;;79.97;18.77;;;0.90;1.00;;;;;;5073742;28;20212;-72
2020/12/08 04:14:17;;;;;;;84.50;19.00;;;1.00;1.00;;;;;;5073687;28;20229;-72
2020/12/08 04:16:45;;;;;;;80.95;17.52;;;1.00;1.00;;;;;;5073620;28;20228;-71
2020/12/08 04:19:11;;;;;;;84.53;19.33;;;0.90;1.00;;;;;;5073338;28;20208;-72
2020/12/08 04:21:38;;;;;;;81.45;18.90;;;0.90;1.00;;;;;;5073506;28;20212;-72
2020/12/08 04:24:05;;;;;;;81.15;18.50;;;0.80;1.00;;;;;;5073372;28;20315;-72
2020/12/08 04:26:32;;;;;;;80.55;17.85;;;0.80;1.00;;;;;;5073292;28;20584;-72
2020/12/08 04:29:00;;;;;;;82.00;18.40;;;0.80;1.00;;;;;;5073473;28;20212;-72
2020/12/08 04:31:27;;;;;;;83.68;19.55;;;0.70;1.00;;;;;;5073770;28;20291;-71
2020/12/08 04:33:54;;;;;;;81.28;17.67;;;0.70;1.00;;;;;;5072607;28;20228;-72
2020/12/08 04:36:22;;;;;;;81.45;19.13;;;0.60;1.00;;;;;;5073152;28;20205;-71
2020/12/08 04:38:49;;;;;;;79.25;17.55;;;0.60;1.00;;;;;;5073434;28;20296;-73
2020/12/08 04:41:20;;;;;;;81.07;20.02;;;0.60;1.00;;;;;;5073572;28;20729;-72
2020/12/08 04:43:47;;;;;;;80.57;19.13;;;0.50;1.00;;;;;;5073738;28;20641;-72
2020/12/08 04:46:14;;;;;;;82.55;19.73;;;0.50;1.00;;;;;;5073255;28;20296;-72
2020/12/08 04:48:40;;;;;;;79.95;17.67;;;0.50;1.00;;;;;;5073754;28;20690;-72
2020/12/08 04:51:07;;;;;;;84.18;17.70;;;0.50;1.00;;;;;;5072978;28;20201;-70
2020/12/08 04:53:33;;;;;;;87.95;18.48;;;0.40;1.00;;;;;;5073247;28;20319;-71
2020/12/08 04:56:01;;;;;;;81.60;17.80;;;0.40;1.00;;;;;;5073043;28;20741;-72
2020/12/08 04:58:29;;;;;;;79.75;17.60;;;0.40;1.00;;;;;;5073545;28;20317;-72
2020/12/08 05:00:56;;;;;;;79.55;18.08;;;0.40;1.00;;;;;;5073506;28;20209;-72
2020/12/08 05:03:23;;;;;;;84.65;20.55;;;0.40;1.00;;;;;;5073163;28;20255;-72
2020/12/08 05:05:50;;;;;;;79.38;18.42;;;0.40;1.00;;;;;;5072728;28;20208;-72
2020/12/08 05:08:17;;;;;;;81.45;17.98;;;0.50;1.00;;;;;;5072883;28;20254;-72
2020/12/08 05:10:43;;;;;;;83.63;17.40;;;0.50;1.00;;;;;;5073288;28;20672;-70
2020/12/08 05:13:17;;;;;;;82.80;18.75;;;0.50;1.70;;;;;;5073037;28;20629;-72
2020/12/08 05:15:43;;;;;;;86.95;23.23;;;0.60;3.10;;;;;;5072638;28;20553;-71
2020/12/08 05:18:11;;;;;;;79.57;17.60;;;0.60;4.50;;;;;;5072750;28;20311;-72
2020/12/08 05:20:38;;;;;;;83.55;19.40;;;0.60;4.60;;;;;;5073029;28;20209;-72
2020/12/08 05:23:04;;;;;;;86.43;19.55;;;0.70;5.40;;;;;;5073232;28;20555;-72
2020/12/08 05:25:32;;;;;;;86.93;20.52;;;0.70;5.00;;;;;;5072947;28;20593;-72
2020/12/08 05:27:59;;;;;;;81.28;18.63;;;0.70;6.30;;;;;;5072434;28;20212;-72
2020/12/08 05:30:28;;;;;;;89.07;21.52;;;0.70;6.60;;;;;;5072843;28;20705;-72
2020/12/08 05:32:54;;;;;;;86.25;19.45;;;0.80;5.80;;;;;;5072786;28;20316;-72
2020/12/08 05:35:22;;;;;;;86.65;20.67;;;0.80;7.20;;;;;;5072565;28;20231;-72
2020/12/08 05:37:50;;;;;;;83.50;19.20;;;0.80;7.60;;;;;;5072481;28;20225;-72
2020/12/08 05:40:18;;;;;;;84.78;20.80;;;0.80;8.50;;;;;;5073001;28;20744;-72
2020/12/08 05:42:46;;;;;;;87.70;21.35;;;0.90;8.30;;;;;;5072622;28;20209;-71
2020/12/08 05:45:14;;;;;;;87.53;20.42;;;0.90;10.80;;;;;;5075591;28;20301;-70
2020/12/08 05:47:47;;;;;;;83.28;19.42;;;0.90;9.90;;;;;;5076313;28;20197;-71
2020/12/08 05:50:14;;;;;;;82.90;18.60;;;1.00;11.50;;;;;;5076448;28;20201;-72
2020/12/08 05:52:45;;;;;;;82.57;19.05;;;1.00;10.60;;;;;;5076013;28;20733;-72
2020/12/08 05:55:13;;;;;;;81.28;19.15;;;1.00;11.20;;;;;;5076247;28;20324;-71
2020/12/08 05:57:40;;;;;;;86.40;21.63;;;1.00;11.00;;;;;;5076356;28;20256;-72
2020/12/08 06:00:19;;;;;;;87.00;20.38;;;1.00;9.20;;;;;;5076448;28;20292;-72
2020/12/08 06:02:46;;;;;;;81.90;21.40;;;1.00;9.10;;;;;;5075849;28;20251;-71
2020/12/08 06:05:24;;;;;;;86.30;20.88;;;1.10;9.10;;;;;;5076135;28;20319;-71
2020/12/08 06:07:50;;;;;;;85.95;20.10;;;1.10;9.20;;;;;;5075679;28;20200;-72
2020/12/08 06:10:17;;;;;;;87.70;20.08;;;1.10;10.40;;;;;;5075620;28;20208;-72
2020/12/08 06:12:43;;;;;;;85.90;19.35;;;1.10;8.60;;;;;;5075647;28;20287;-71
2020/12/08 06:15:22;;;;;;;87.03;19.85;;;1.20;9.40;;;;;;5075812;28;20227;-72
2020/12/08 06:17:50;;;;;;;88.28;21.73;;;1.20;9.30;;;;;;5075592;28;20217;-72
2020/12/08 06:20:17;;;;;;;87.57;20.20;;;1.20;9.70;;;;;;5075678;28;20232;-72
2020/12/08 06:22:54;;;;;;;88.75;21.45;;;1.30;9.40;;;;;;5075556;28;20223;-72
2020/12/08 06:25:20;;;;;;;87.18;21.25;;;1.30;10.60;;;;;;5075698;28;20225;-72
2020/12/08 06:27:46;;;;;;;87.97;22.20;;;1.30;8.90;;;;;;5075716;28;20204;-72
2020/12/08 06:30:13;;;;;;;87.88;22.27;;;1.30;7.90;;;;;;5075836;28;20671;-72
2020/12/08 06:32:42;;;;;;;89.65;22.02;;;1.30;8.30;;;;;;5075717;28;20205;-72
2020/12/08 06:35:11;;;;;;;91.95;23.52;;;1.20;6.00;;;;;;5074901;28;20229;-72
2020/12/08 06:37:47;;;;;;;88.60;22.05;;;1.20;5.30;;;;;;5075112;28;20335;-72
2020/12/08 06:40:15;;;;;;;90.20;22.63;;;1.20;3.80;;;;;;5075375;28;20310;-72
2020/12/08 06:42:42;;;;;;;91.20;22.85;;;1.20;3.30;;;;;;5075661;28;20230;-72
2020/12/08 06:45:13;;;;;;;89.63;22.85;;;1.20;3.50;;;;;;5075285;28;20337;-71
2020/12/08 06:47:41;;;;;;;89.68;22.25;;;1.10;2.90;;;;;;5074875;28;20201;-71
2020/12/08 06:50:21;;;;;;;86.57;21.85;;;1.10;1.00;;;;;;5075157;28;20698;-72
2020/12/08 06:52:55;;;;;;;88.38;21.05;;;1.10;1.00;;;;;;5075388;28;20623;-72
2020/12/08 06:55:21;;;;;;;89.85;22.33;;;1.00;1.00;;;;;;5074057;28;20233;-72
2020/12/08 06:57:48;;;;;;;91.90;21.73;;;0.90;1.00;;;;;;5087496;22;20315;-77
2020/12/08 07:00:15;;;;;;;84.53;20.20;;;0.90;1.00;;;;;;5075299;28;20326;-77
2020/12/08 07:02:49;;;;;;;89.72;21.80;;;0.80;1.00;;;;;;5074613;28;20200;-73
2020/12/08 07:05:23;;;;;;;89.90;23.38;;;0.70;1.00;;;;;;5073501;28;20204;-73
2020/12/08 07:07:50;;;;;;;92.10;23.77;;;0.70;1.00;;;;;;5073156;28;20231;-73
2020/12/08 07:10:17;;;;;;;93.47;23.50;;;0.70;1.00;;;;;;5073329;28;20217;-74
2020/12/08 07:12:45;;;;;;;86.85;21.02;;;0.70;1.00;;;;;;5074348;28;20250;-74
2020/12/08 07:15:19;;;;;;;85.78;20.77;;;0.60;1.00;;;;;;5073852;28;20281;-73
2020/12/08 07:17:52;;;;;;;90.10;23.73;;;0.60;1.00;;;;;;5072936;28;20314;-73
2020/12/08 07:20:19;;;;;;;87.95;22.67;;;0.60;1.00;;;;;;5073080;28;20604;-73
2020/12/08 07:22:46;;;;;;;89.63;21.13;;;0.60;1.00;;;;;;5073550;28;20292;-74
2020/12/08 07:25:14;;;;;;;90.75;22.95;;;0.70;1.00;;;;;;5073105;28;20208;-75
2020/12/08 07:27:43;;;;;;;90.72;22.23;;;0.70;1.00;;;;;;5074102;28;20575;-75
2020/12/08 07:30:10;;;;;;;88.05;21.65;;;0.80;1.10;;;;;;5073475;28;20208;-75
2020/12/08 07:32:37;;;;;;;89.30;21.33;;;0.80;2.70;;;;;;5073520;28;20571;-75
2020/12/08 07:35:04;;;;;;;93.22;23.27;;;0.80;2.80;;;;;;5073341;28;20208;-75
2020/12/08 07:37:37;;;;;;;91.05;23.35;;;0.90;3.50;;;;;;5072632;28;20323;-74
2020/12/08 07:40:11;;;;;;;95.03;24.15;;;0.90;3.40;;;;;;5073651;28;20264;-74
2020/12/08 07:42:38;;;;;;;96.90;24.08;;;1.00;3.50;;;;;;5073513;28;20214;-75
2020/12/08 07:45:08;;;;;;;95.00;24.08;;;1.00;4.60;;;;;;5072688;28;20297;-75
2020/12/08 07:47:35;;;;;;;90.32;23.02;;;1.10;3.20;;;;;;5072371;28;20225;-74
2020/12/08 07:50:01;;;;;;;91.55;22.55;;;1.10;5.00;;;;;;5074524;28;20205;-76
2020/12/08 07:52:28;;;;;;;86.25;21.90;;;1.20;3.50;;;;;;5074252;28;20209;-75
2020/12/08 07:54:55;;;;;;;90.90;21.88;;;1.20;3.80;;;;;;5075436;28;20300;-76
2020/12/08 07:57:21;;;;;;;89.80;22.60;;;1.30;3.20;;;;;;5074376;28;20241;-77
2020/12/08 07:59:48;;;;;;;89.55;23.23;;;1.30;2.60;;;;;;5074776;28;20747;-77
2020/12/08 08:02:14;;;;;;;90.45;24.17;;;1.30;1.30;;;;;;5075109;28;20296;-75
2020/12/08 08:04:41;;;;;;;90.72;21.95;;;1.40;1.00;;;;;;5074249;28;20213;-77
2020/12/08 08:07:07;;;;;;;87.30;22.58;;;1.40;1.00;;;;;;5074032;28;20233;-76
2020/12/08 08:09:34;;;;;;;90.70;23.00;;;1.30;1.00;;;;;;5073907;28;20205;-76
2020/12/08 08:12:03;;;;;;;84.72;20.13;;;1.30;1.00;;;;;;5073832;28;20262;-77
2020/12/08 08:14:30;;;;;;;88.80;21.17;;;1.30;1.00;;;;;;5074528;28;20205;-77
2020/12/08 08:16:56;;;;;;;90.00;22.35;;;1.30;1.00;;;;;;5073983;28;20297;-77
2020/12/08 08:19:23;;;;;;;90.45;23.10;;;1.30;1.00;;;;;;5074379;28;20298;-76
2020/12/08 08:21:49;;;;;;;86.05;21.27;;;1.30;1.00;;;;;;5074095;28;20205;-76
2020/12/08 08:24:15;;;;;;;90.68;23.35;;;1.30;1.00;;;;;;5073949;28;20270;-77
2020/12/08 08:26:42;;;;;;;89.90;22.25;;;1.30;1.00;;;;;;5074855;28;20225;-77
2020/12/08 08:29:09;;;;;;;89.38;22.10;;;1.30;1.00;;;;;;5074483;28;20212;-77
2020/12/08 08:31:36;;;;;;;97.30;25.48;;;1.30;1.00;;;;;;5074079;28;20262;-77
2020/12/08 08:34:02;;;;;;;93.93;22.00;;;1.40;1.00;;;;;;5074347;28;20205;-77
2020/12/08 08:36:29;;;;;;;90.45;23.13;;;1.40;1.00;;;;;;5074753;28;20216;-77
2020/12/08 08:38:56;;;;;;;89.38;20.67;;;1.50;1.00;;;;;;5074819;28;20235;-77
2020/12/08 08:41:22;;;;;;;86.82;22.05;;;1.60;1.00;;;;;;5074108;28;20239;-77
2020/12/08 08:43:49;;;;;;;91.53;21.50;;;1.70;1.00;;;;;;5074304;28;20205;-77
2020/12/08 08:46:16;;;;;;;90.95;21.42;;;1.90;1.00;;;;;;5074235;28;20631;-76
2020/12/08 08:48:43;;;;;;;91.03;22.55;;;2.00;1.00;;;;;;5074585;28;20270;-77
2020/12/08 08:51:09;;;;;;;86.40;19.90;;;2.10;1.00;;;;;;5075027;28;20231;-77
2020/12/08 08:53:36;;;;;;;89.70;21.40;;;2.30;1.00;;;;;;5075878;28;20671;-77
2020/12/08 08:56:03;;;;;;;86.15;20.38;;;2.40;1.00;;;;;;5075904;28;20212;-78
2020/12/08 08:58:29;;;;;;;86.60;20.92;;;2.60;1.00;;;;;;5075347;28;20233;-76
2020/12/08 09:00:57;;;;;;;92.65;22.83;;;2.70;1.00;;;;;;5075665;28;20630;-77
2020/12/08 09:03:25;;;;;;;93.80;23.15;;;2.90;1.00;;;;;;5077268;28;20205;-77
2020/12/08 09:05:51;;;;;;;88.60;23.20;;;3.10;1.00;;;;;;5076105;28;20268;-77
2020/12/08 09:08:18;;;;;;;88.63;21.73;;;3.20;1.00;;;;;;5076093;28;20270;-77
2020/12/08 09:10:44;;;;;;;83.95;21.58;;;3.30;1.00;;;;;;5077341;28;20346;-76
2020/12/08 09:13:11;;;;;;;85.35;21.38;;;3.40;1.00;;;;;;5079259;28;20227;-79
2020/12/08 09:15:37;;;;;;;82.68;21.33;;;3.50;1.00;;;;;;5079424;28;20208;-79
2020/12/08 09:18:04;;;;;;;84.30;20.40;;;3.60;1.00;;;;;;5076130;28;20714;-79
2020/12/08 09:20:31;;;;;;;80.95;19.67;;;3.70;1.00;;;;;;5080733;28;20234;-79
2020/12/08 09:22:57;;;;;;;80.82;18.17;;;3.90;1.00;;;;;;5081254;28;20250;-79
2020/12/08 09:25:27;;;;;;;79.65;19.38;;;3.90;1.00;;;;;;5081157;28;20208;-79
2020/12/08 09:27:54;;;;;;;79.72;19.08;;;4.00;1.00;;;;;;5080764;28;20711;-79
2020/12/08 09:30:21;;;;;;;84.95;20.60;;;4.10;1.00;;;;;;5080601;28;20205;-79
2020/12/08 09:32:47;;;;;;;80.05;18.23;;;4.30;1.00;;;;;;5080988;28;20236;-79
2020/12/08 09:35:15;;;;;;;79.63;17.98;;;4.40;1.00;;;;;;5080337;28;20208;-79
2020/12/08 09:37:42;;;;;;;80.93;18.75;;;4.60;1.00;;;;;;5080743;28;20319;-79
2020/12/08 09:40:09;;;;;;;81.70;18.67;;;4.80;1.00;;;;;;5079200;28;20236;-78
2020/12/08 09:42:39;;;;;;;78.97;16.95;;;5.00;1.00;;;;;;5079965;28;20258;-79
2020/12/08 09:45:06;;;;;;;76.78;17.95;;;5.20;1.00;;;;;;5080769;28;20205;-79
2020/12/08 09:47:32;;;;;;;77.32;19.02;;;5.30;1.00;;;;;;5080198;28;20220;-79
2020/12/08 09:49:59;;;;;;;80.10;18.27;;;5.30;1.00;;;;;;5080438;28;20258;-79
2020/12/08 09:52:28;;;;;;;77.72;17.80;;;5.50;1.00;;;;;;5080530;28;20234;-79
2020/12/08 09:54:55;;;;;;;74.35;15.80;;;5.80;1.00;;;;;;5080689;28;20213;-79
2020/12/08 09:57:23;;;;;;;75.47;17.08;;;6.00;1.00;;;;;;5079229;28;20229;-79
2020/12/08 09:59:50;;;;;;;74.95;16.27;;;6.30;1.00;;;;;;5080541;28;20247;-79
2020/12/08 10:02:17;;;;;;;74.60;16.97;;;6.80;1.00;;;;;;5080001;28;20210;-79
2020/12/08 10:04:43;;;;;;;72.60;16.37;;;7.50;1.00;;;;;;5080226;28;20896;-79
2020/12/08 10:07:14;;;;;;;76.40;17.40;;;8.40;1.00;;;;;;5079613;28;20473;-78
2020/12/08 10:09:41;;;;;;;77.00;16.70;;;9.40;1.00;;;;;;5079756;28;20826;-79
2020/12/08 10:12:08;;;;;;;72.00;16.47;;;10.30;1.00;;;;;;5079723;28;20462;-79
2020/12/08 10:14:35;;;;;;;73.50;16.40;;;11.30;1.00;;;;;;5079645;28;20930;-79
2020/12/08 10:17:01;;;;;;;73.87;15.93;;;12.10;1.00;;;;;;5082588;28;20493;-78
2020/12/08 10:19:28;;;;;;;74.30;17.30;;;12.50;1.00;;;;;;5082090;28;20493;-77
2020/12/08 10:21:55;;;;;;;69.90;15.23;;;12.70;1.00;;;;;;5079184;28;20505;-79
2020/12/08 10:24:21;;;;;;;70.50;15.43;;;12.90;1.00;;;;;;5078381;28;20822;-79
2020/12/08 10:26:48;;;;;;;69.97;16.00;;;13.40;1.00;;;;;;5079888;28;20683;-79
2020/12/08 10:29:16;;;;;;;69.07;13.87;;;13.70;1.00;;;;;;5079381;28;20493;-79
2020/12/08 10:31:42;;;;;;;68.87;14.83;;;14.00;1.00;;;;;;5079258;28;20451;-78
2020/12/08 10:34:09;;;;;;;69.57;15.43;;;14.50;1.00;;;;;;5079710;28;20470;-78
2020/12/08 10:36:35;;;;;;;69.20;15.23;;;14.80;1.00;;;;;;5078412;28;20451;-77
2020/12/08 10:39:03;;;;;;;68.37;14.80;;;15.20;1.00;;;;;;5078305;28;20484;-78
2020/12/08 10:41:30;;;;;;;69.67;15.40;;;15.60;1.00;;;;;;5079504;28;20459;-79
2020/12/08 10:43:56;;;;;;;70.93;16.70;;;16.00;1.00;;;;;;5079072;28;20451;-78
2020/12/08 10:46:25;;;;;;;69.77;15.93;;;16.40;1.00;;;;;;5078596;28;20453;-78
2020/12/08 10:48:52;;;;;;;69.33;16.57;;;16.70;1.00;;;;;;5077933;28;20450;-78
2020/12/08 10:51:22;;;;;;;67.60;14.73;;;17.20;1.00;;;;;;5078794;28;20862;-78
2020/12/08 10:53:49;;;;;;;70.73;15.10;;;17.60;1.00;;;;;;5079346;28;20452;-78
2020/12/08 10:56:19;;;;;;;69.57;16.00;;;17.90;1.00;;;;;;5078171;28;20437;-76
2020/12/08 10:58:46;;;;;;;70.80;16.47;;;18.30;1.00;;;;;;5078401;28;20492;-77
2020/12/08 11:01:18;;;;;;;70.43;15.70;;;18.40;1.00;;;;;;5078514;28;20475;-77
2020/12/08 11:03:45;;;;;;;74.97;17.40;;;18.40;1.00;;;;;;5078566;28;20475;-78
2020/12/08 11:06:18;;;;;;;68.50;15.27;;;18.40;1.00;;;;;;5078372;28;20883;-78
2020/12/08 11:08:44;;;;;;;71.73;15.70;;;18.20;1.00;;;;;;5078818;28;20868;-78
2020/12/08 11:11:11;;;;;;;69.47;14.83;;;17.60;1.00;;;;;;5078809;28;20478;-78
2020/12/08 11:13:37;;;;;;;69.43;15.40;;;16.80;1.00;;;;;;5079817;28;20468;-78
2020/12/08 11:16:04;;;;;;;73.00;16.80;;;16.30;1.00;;;;;;5080547;28;20452;-77
2020/12/08 11:18:30;;;;;;;66.77;14.97;;;16.20;1.00;;;;;;5075836;28;20491;-77
2020/12/08 11:20:58;;;;;;;68.73;15.20;;;16.10;1.00;;;;;;5070246;28;20470;-74
2020/12/08 11:23:24;;;;;;;69.50;15.93;;;16.00;1.00;;;;;;5069882;28;20455;-73
2020/12/08 11:25:51;;;;;;;69.53;15.10;;;15.70;1.00;;;;;;5069626;28;20463;-76
2020/12/08 11:28:17;;;;;;;71.83;16.57;;;15.50;1.00;;;;;;5069449;28;20478;-73
2020/12/08 11:30:44;;;;;;;69.20;15.70;;;15.40;1.00;;;;;;5069887;28;20698;-73
2020/12/08 11:33:11;;;;;;;72.20;16.00;;;15.20;1.00;;;;;;5069443;28;20912;-71
2020/12/08 11:35:37;;;;;;;70.53;15.90;;;14.90;1.00;;;;;;5069639;28;20496;-72
2020/12/08 11:38:05;;;;;;;70.70;15.10;;;14.40;1.00;;;;;;5069465;28;20482;-74
2020/12/08 11:40:31;;;;;;;69.37;14.33;;;14.20;1.00;;;;;;5069650;28;20446;-75
2020/12/08 11:42:58;;;;;;;69.80;14.90;;;13.90;1.00;;;;;;5072139;28;20459;-78
2020/12/08 11:45:24;;;;;;;70.77;15.33;;;13.90;1.00;;;;;;5070995;28;20516;-74
2020/12/08 11:47:51;;;;;;;70.20;15.50;;;14.00;1.00;;;;;;5069080;28;20467;-74
2020/12/08 11:50:17;;;;;;;70.53;15.10;;;14.00;1.00;;;;;;5071014;28;21055;-77
2020/12/08 11:52:44;;;;;;;71.10;15.40;;;14.20;1.00;;;;;;5070514;28;20509;-77
2020/12/08 11:55:11;;;;;;;71.00;15.30;;;14.50;1.00;;;;;;5072815;28;20500;-76
2020/12/08 11:57:38;;;;;;;70.60;15.97;;;14.80;1.00;;;;;;5071764;28;21002;-77
2020/12/08 12:00:06;;;;;;;70.40;16.57;;;15.20;1.00;;;;;;5071765;28;20447;-77
2020/12/08 12:02:32;;;;;;;71.63;16.27;;;15.60;1.00;;;;;;5071453;28;20512;-78
2020/12/08 12:04:59;;;;;;;67.80;15.40;;;16.20;1.00;;;;;;5072919;28;20451;-77
2020/12/08 12:07:25;;;;;;;72.70;16.60;;;16.90;1.00;;;;;;5071351;28;20498;-75
2020/12/08 12:09:52;;;;;;;70.80;16.80;;;17.60;1.00;;;;;;5071993;28;20896;-77
2020/12/08 12:12:19;;;;;;;72.40;17.30;;;18.00;1.00;;;;;;5072636;28;20597;-77
2020/12/08 12:14:46;;;;;;;68.80;16.17;;;18.30;1.00;;;;;;5072089;28;20452;-77
2020/12/08 12:17:12;;;;;;;71.87;17.67;;;18.30;1.00;;;;;;5068586;28;20466;-76
2020/12/08 12:19:39;;;;;;;70.10;16.00;;;18.20;1.00;;;;;;5070135;28;20539;-77
2020/12/08 12:22:05;;;;;;;71.30;16.57;;;18.00;1.00;;;;;;5072374;28;20453;-76
2020/12/08 12:24:32;;;;;;;68.47;16.30;;;17.70;1.00;;;;;;5072343;28;20445;-76
2020/12/08 12:26:58;;;;;;;71.00;16.43;;;17.50;1.00;;;;;;5071953;28;20469;-76
2020/12/08 12:29:26;;;;;;;71.67;17.00;;;17.10;1.00;;;;;;5071813;28;20562;-76
2020/12/08 12:31:52;;;;;;;70.70;16.00;;;17.20;1.00;;;;;;5072389;28;20456;-76
2020/12/08 12:34:18;;;;;;;72.10;17.57;;;17.40;1.00;;;;;;5072241;28;20493;-76
2020/12/08 12:36:48;;;;;;;72.60;17.50;;;18.20;1.00;;;;;;5071775;28;20473;-77
2020/12/08 12:39:15;;;;;;;69.30;16.60;;;18.80;1.00;;;;;;5072357;28;20544;-76
2020/12/08 12:41:41;;;;;;;72.37;17.17;;;18.50;1.00;;;;;;5071913;28;20885;-76
2020/12/08 12:44:08;;;;;;;69.43;16.07;;;17.80;1.00;;;;;;5072160;28;21034;-75
2020/12/08 12:46:36;;;;;;;70.37;16.37;;;17.40;1.00;;;;;;5071949;28;20446;-77